createdAt,value
2018-05-02T00:00:39.291Z,17.87
2018-05-02T00:03:08.459Z,17.87
2018-05-02T00:05:37.591Z,19.10
2018-05-02T00:08:06.736Z,19.37
2018-05-02T00:10:35.850Z,19.87
2018-05-02T00:13:04.968Z,19.97
2018-05-02T00:15:34.126Z,19.87
2018-05-02T00:18:03.339Z,18.03
2018-05-02T00:20:32.419Z,18.27
2018-05-02T00:23:01.578Z,20.00
2018-05-02T00:25:30.745Z,18.93
2018-05-02T00:27:59.856Z,19.10
2018-05-02T00:30:29.030Z,19.03
2018-05-02T00:32:58.173Z,17.70
2018-05-02T00:35:27.325Z,18.03
2018-05-02T00:37:56.476Z,17.17
2018-05-02T00:40:25.660Z,19.47
2018-05-02T00:42:55.160Z,17.70
2018-05-02T00:45:24.335Z,18.57
2018-05-02T00:47:53.456Z,18.40
2018-05-02T00:50:22.569Z,19.13
2018-05-02T00:52:51.753Z,18.33
2018-05-02T00:55:20.889Z,19.47
2018-05-02T00:57:50.009Z,19.27
2018-05-02T01:00:19.695Z,18.83
2018-05-02T01:02:48.820Z,19.07
2018-05-02T01:05:17.931Z,18.23
2018-05-02T01:07:47.088Z,17.93
2018-05-02T01:10:16.225Z,18.33
2018-05-02T01:12:45.360Z,17.80
2018-05-02T01:15:14.476Z,17.60
2018-05-02T01:17:43.607Z,18.43
2018-05-02T01:20:12.756Z,17.90
2018-05-02T01:22:41.891Z,17.80
2018-05-02T01:25:11.032Z,17.50
2018-05-02T01:27:40.191Z,18.63
2018-05-02T01:30:09.328Z,18.83
2018-05-02T01:32:38.493Z,17.97
2018-05-02T01:35:07.619Z,17.87
2018-05-02T01:37:36.756Z,18.97
2018-05-02T01:40:05.914Z,18.87
2018-05-02T01:42:35.061Z,19.03
2018-05-02T01:45:04.198Z,19.33
2018-05-02T01:47:33.364Z,19.07
2018-05-02T01:50:02.500Z,18.80
2018-05-02T01:52:31.652Z,18.80
2018-05-02T01:55:00.799Z,18.53
2018-05-02T01:57:29.968Z,19.30
2018-05-02T01:59:59.100Z,18.80
2018-05-02T02:02:28.268Z,18.83
2018-05-02T02:04:57.442Z,18.87
2018-05-02T02:07:26.579Z,18.93
2018-05-02T02:09:55.729Z,18.77
2018-05-02T02:12:24.884Z,19.07
2018-05-02T02:14:54.020Z,17.97
2018-05-02T02:17:23.250Z,17.90
2018-05-02T02:19:52.388Z,17.73
2018-05-02T02:22:21.512Z,18.70
2018-05-02T02:24:50.643Z,18.30
2018-05-02T02:27:19.808Z,16.20
2018-05-02T02:29:48.944Z,18.20
2018-05-02T02:32:18.073Z,17.53
2018-05-02T02:34:47.242Z,17.73
2018-05-02T02:37:16.360Z,16.00
2018-05-02T02:39:45.513Z,16.73
2018-05-02T02:42:14.683Z,16.40
2018-05-02T02:44:43.798Z,15.30
2018-05-02T02:47:12.917Z,16.90
2018-05-02T02:49:42.092Z,17.07
2018-05-02T02:52:11.249Z,18.90
2018-05-02T02:54:40.388Z,16.60
2018-05-02T02:57:09.503Z,16.27
2018-05-02T02:59:38.668Z,16.27
2018-05-02T03:02:07.795Z,15.50
2018-05-02T03:04:36.909Z,15.77
2018-05-02T03:07:06.089Z,14.63
2018-05-02T03:09:35.232Z,16.33
2018-05-02T03:12:04.347Z,15.40
2018-05-02T03:14:33.932Z,15.77
2018-05-02T03:17:03.071Z,15.70
2018-05-02T03:19:32.347Z,15.50
2018-05-02T03:22:01.505Z,15.30
2018-05-02T03:24:30.620Z,15.77
2018-05-02T03:26:59.795Z,15.60
2018-05-02T03:29:28.942Z,16.37
2018-05-02T03:31:58.093Z,17.10
2018-05-02T03:34:27.199Z,15.40
2018-05-02T03:36:56.379Z,15.10
2018-05-02T03:39:25.540Z,15.47
2018-05-02T03:41:54.681Z,15.33
2018-05-02T03:44:23.803Z,15.27
2018-05-02T03:46:52.984Z,14.97
2018-05-02T03:49:22.115Z,14.77
2018-05-02T03:51:51.244Z,15.37
2018-05-02T03:54:20.396Z,13.77
2018-05-02T03:56:49.549Z,14.30
2018-05-02T03:59:24.996Z,14.43
2018-05-02T04:02:13.945Z,14.60
2018-05-02T04:04:48.980Z,14.97
2018-05-02T04:07:18.093Z,13.67
2018-05-02T04:09:47.223Z,14.30
2018-05-02T04:12:16.955Z,14.70
2018-05-02T04:14:46.093Z,14.40
2018-05-02T04:17:15.236Z,14.67
2018-05-02T04:19:44.380Z,15.10
2018-05-02T04:22:13.520Z,14.80
2018-05-02T04:24:42.669Z,15.47
2018-05-02T04:27:11.809Z,14.03
2018-05-02T04:29:40.949Z,14.40
2018-05-02T04:32:10.108Z,14.83
2018-05-02T04:34:39.228Z,13.77
2018-05-02T04:37:08.379Z,15.00
2018-05-02T04:39:37.562Z,14.70
2018-05-02T04:42:06.755Z,14.07
2018-05-02T04:44:35.876Z,14.40
2018-05-02T04:47:05.020Z,14.30
2018-05-02T04:49:34.143Z,14.17
2018-05-02T04:52:03.282Z,14.23
2018-05-02T04:54:32.547Z,14.80
2018-05-02T04:57:01.671Z,14.53
2018-05-02T04:59:30.839Z,14.23
2018-05-02T05:02:00.020Z,13.80
2018-05-02T05:04:29.159Z,13.93
2018-05-02T05:06:58.271Z,14.40
2018-05-02T05:09:27.408Z,12.67
2018-05-02T05:11:56.544Z,13.70
2018-05-02T05:14:25.688Z,13.93
2018-05-02T05:16:54.831Z,12.73
2018-05-02T05:19:23.974Z,13.97
2018-05-02T05:21:53.116Z,13.60
2018-05-02T05:24:22.299Z,12.60
2018-05-02T05:26:51.446Z,13.30
2018-05-02T05:29:20.608Z,14.00
2018-05-02T05:31:49.724Z,13.20
2018-05-02T05:34:18.906Z,12.40
2018-05-02T05:36:48.048Z,13.80
2018-05-02T05:39:17.184Z,13.50
2018-05-02T05:41:46.327Z,12.90
2018-05-02T05:44:15.499Z,13.90
2018-05-02T05:46:44.660Z,13.30
2018-05-02T05:49:13.804Z,13.00
2018-05-02T05:51:42.923Z,13.20
2018-05-02T05:54:12.194Z,12.83
2018-05-02T05:56:41.257Z,12.97
2018-05-02T05:59:10.397Z,12.87
2018-05-02T06:01:39.552Z,12.67
2018-05-02T06:04:08.734Z,12.30
2018-05-02T06:06:37.910Z,11.90
2018-05-02T06:09:07.005Z,11.97
2018-05-02T06:11:36.169Z,11.40
2018-05-02T06:14:05.279Z,12.30
2018-05-02T06:16:34.402Z,11.87
2018-05-02T06:19:03.572Z,11.77
2018-05-02T06:21:32.679Z,12.30
2018-05-02T06:24:01.804Z,12.07
2018-05-02T06:26:30.976Z,11.50
2018-05-02T06:29:00.081Z,11.10
2018-05-02T06:31:29.224Z,11.00
2018-05-02T06:33:58.389Z,11.07
2018-05-02T06:36:27.502Z,11.70
2018-05-02T06:38:56.627Z,11.60
2018-05-02T06:41:25.789Z,12.00
2018-05-02T06:43:57.159Z,11.43
2018-05-02T06:46:26.336Z,11.30
2018-05-02T06:48:55.491Z,11.73
2018-05-02T06:51:24.639Z,11.47
2018-05-02T06:53:53.785Z,11.60
2018-05-02T06:56:22.951Z,10.87
2018-05-02T06:58:52.069Z,11.43
2018-05-02T07:01:21.205Z,10.13
2018-05-02T07:03:50.356Z,11.47
2018-05-02T07:06:19.568Z,11.33
2018-05-02T07:08:48.703Z,11.20
2018-05-02T07:11:17.875Z,10.97
2018-05-02T07:13:46.991Z,11.40
2018-05-02T07:16:16.145Z,11.43
2018-05-02T07:18:45.300Z,11.50
2018-05-02T07:21:14.449Z,11.47
2018-05-02T07:23:43.564Z,11.37
2018-05-02T07:26:12.742Z,11.30
2018-05-02T07:28:41.883Z,11.33
2018-05-02T07:31:11.036Z,11.30
2018-05-02T07:33:40.188Z,11.20
2018-05-02T07:36:09.349Z,11.30
2018-05-02T07:38:38.468Z,10.70
2018-05-02T07:41:07.632Z,11.03
2018-05-02T07:43:36.769Z,10.50
2018-05-02T07:46:05.899Z,11.37
2018-05-02T07:48:35.277Z,11.60
2018-05-02T07:51:04.343Z,11.33
2018-05-02T07:53:33.546Z,11.63
2018-05-02T07:56:02.710Z,12.10
2018-05-02T07:58:31.843Z,11.10
2018-05-02T08:01:00.968Z,11.10
2018-05-02T08:03:30.148Z,10.93
2018-05-02T08:05:59.304Z,10.80
2018-05-02T08:08:28.465Z,10.20
2018-05-02T08:10:57.657Z,10.27
2018-05-02T08:13:26.772Z,11.10
2018-05-02T08:15:55.914Z,11.30
2018-05-02T08:18:25.078Z,11.03
2018-05-02T08:20:54.229Z,11.03
2018-05-02T08:23:23.340Z,11.00
2018-05-02T08:25:52.506Z,10.20
2018-05-02T08:28:21.644Z,10.70
2018-05-02T08:30:51.676Z,10.80
2018-05-02T08:33:20.813Z,10.80
2018-05-02T08:35:49.952Z,10.60
2018-05-02T08:38:19.120Z,10.50
2018-05-02T08:40:48.232Z,11.30
2018-05-02T08:43:17.352Z,11.10
2018-05-02T08:45:46.513Z,11.63
2018-05-02T08:48:15.640Z,10.80
2018-05-02T08:50:44.802Z,10.70
2018-05-02T08:53:13.984Z,10.60
2018-05-02T08:55:43.119Z,10.70
2018-05-02T08:58:12.296Z,10.57
2018-05-02T09:00:41.404Z,10.87
2018-05-02T09:03:10.556Z,10.70
2018-05-02T09:05:39.693Z,10.60
2018-05-02T09:08:08.841Z,10.47
2018-05-02T09:10:37.957Z,9.03
2018-05-02T09:13:07.076Z,9.23
2018-05-02T09:15:36.389Z,9.37
2018-05-02T09:18:05.457Z,9.00
2018-05-02T09:20:34.561Z,9.37
2018-05-02T09:23:03.700Z,9.50
2018-05-02T09:25:32.858Z,8.90
2018-05-02T09:28:01.967Z,8.57
2018-05-02T09:30:31.161Z,8.10
2018-05-02T09:33:00.290Z,8.30
2018-05-02T09:35:29.440Z,9.27
2018-05-02T09:37:58.568Z,8.53
2018-05-02T09:40:27.722Z,8.87
2018-05-02T09:42:56.885Z,8.67
2018-05-02T09:45:25.989Z,8.43
2018-05-02T09:47:55.158Z,8.43
2018-05-02T09:50:24.533Z,8.40
2018-05-02T09:52:53.640Z,8.80
2018-05-02T09:55:22.792Z,8.50
2018-05-02T09:57:51.968Z,8.63
2018-05-02T10:00:21.098Z,8.80
2018-05-02T10:02:50.224Z,8.40
2018-05-02T10:05:19.384Z,8.23
2018-05-02T10:07:48.499Z,8.20
2018-05-02T10:10:17.652Z,7.70
2018-05-02T10:12:46.863Z,7.83
2018-05-02T10:15:15.905Z,8.30
2018-05-02T10:17:45.084Z,7.70
2018-05-02T10:20:14.232Z,8.07
2018-05-02T10:22:43.364Z,8.20
2018-05-02T10:25:12.553Z,8.33
2018-05-02T10:27:41.726Z,7.83
2018-05-02T10:30:10.855Z,7.93
2018-05-02T10:32:39.963Z,7.83
2018-05-02T10:35:09.153Z,8.20
2018-05-02T10:37:38.276Z,7.97
2018-05-02T10:40:07.384Z,8.40
2018-05-02T10:42:36.529Z,7.87
2018-05-02T10:45:05.649Z,7.40
2018-05-02T10:47:34.844Z,7.30
2018-05-02T10:50:03.968Z,7.13
2018-05-02T10:52:33.100Z,7.13
2018-05-02T10:55:02.232Z,7.43
2018-05-02T10:57:31.389Z,7.33
2018-05-02T11:00:00.505Z,7.30
2018-05-02T11:02:29.654Z,7.80
2018-05-02T11:04:58.889Z,7.50
2018-05-02T11:07:28.020Z,6.93
2018-05-02T11:09:57.155Z,7.70
2018-05-02T11:12:26.330Z,7.13
2018-05-02T11:14:55.456Z,6.20
2018-05-02T11:17:24.569Z,6.57
2018-05-02T11:19:53.808Z,6.53
2018-05-02T11:22:22.941Z,7.00
2018-05-02T11:24:52.056Z,6.57
2018-05-02T11:27:21.235Z,6.97
2018-05-02T11:29:50.369Z,6.23
2018-05-02T11:32:19.490Z,6.77
2018-05-02T11:34:48.740Z,7.00
2018-05-02T11:37:17.891Z,7.27
2018-05-02T11:39:47.024Z,7.00
2018-05-02T11:42:16.166Z,7.23
2018-05-02T11:44:45.335Z,7.20
2018-05-02T11:47:14.470Z,6.97
2018-05-02T11:49:43.654Z,7.00
2018-05-02T11:52:12.844Z,7.30
2018-05-02T11:54:42.212Z,7.63
2018-05-02T11:57:11.315Z,7.73
2018-05-02T11:59:40.462Z,7.63
2018-05-02T12:02:09.648Z,7.30
2018-05-02T12:04:38.778Z,8.37
2018-05-02T12:07:07.892Z,7.90
2018-05-02T12:09:37.004Z,7.60
2018-05-02T12:12:06.118Z,7.93
2018-05-02T12:14:35.261Z,7.70
2018-05-02T12:17:04.380Z,8.13
2018-05-02T12:19:33.527Z,7.50
2018-05-02T12:22:02.676Z,7.77
2018-05-02T12:24:31.816Z,8.40
2018-05-02T12:27:01.192Z,9.13
2018-05-02T12:29:30.361Z,8.30
2018-05-02T12:31:59.487Z,8.70
2018-05-02T12:34:28.611Z,9.20
2018-05-02T12:36:57.775Z,9.17
2018-05-02T12:39:26.895Z,9.00
2018-05-02T12:41:56.027Z,8.40
2018-05-02T12:44:25.191Z,8.30
2018-05-02T12:46:54.324Z,8.40
2018-05-02T12:49:23.439Z,10.30
2018-05-02T12:51:52.595Z,8.70
2018-05-02T12:54:21.733Z,7.70
2018-05-02T12:56:50.875Z,8.40
2018-05-02T12:59:20.014Z,8.50
2018-05-02T13:01:49.133Z,7.90
2018-05-02T13:04:18.265Z,7.97
2018-05-02T13:06:47.430Z,8.00
2018-05-02T13:09:16.559Z,8.63
2018-05-02T13:11:45.714Z,7.97
2018-05-02T13:14:14.861Z,8.20
2018-05-02T13:16:44.004Z,8.10
2018-05-02T13:19:13.171Z,8.53
2018-05-02T13:21:42.304Z,8.23
2018-05-02T13:24:11.412Z,8.27
2018-05-02T13:26:40.932Z,8.70
2018-05-02T13:29:10.047Z,7.63
2018-05-02T13:31:39.157Z,11.70
2018-05-02T13:34:08.296Z,8.47
2018-05-02T13:36:37.426Z,7.77
2018-05-02T13:39:06.545Z,8.00
2018-05-02T13:41:35.715Z,7.97
2018-05-02T13:44:04.900Z,8.50
2018-05-02T13:46:34.045Z,8.20
2018-05-02T13:49:03.219Z,7.90
2018-05-02T13:51:32.328Z,9.80
2018-05-02T13:54:01.488Z,8.70
2018-05-02T13:56:30.617Z,7.90
2018-05-02T13:58:59.941Z,8.33
2018-05-02T14:01:29.084Z,7.57
2018-05-02T14:03:58.202Z,7.70
2018-05-02T14:06:27.351Z,7.50
2018-05-02T14:08:56.484Z,8.97
2018-05-02T14:11:25.616Z,8.20
2018-05-02T14:13:54.828Z,7.67
2018-05-02T14:16:24.008Z,7.60
2018-05-02T14:18:53.125Z,8.37
2018-05-02T14:21:22.653Z,8.27
2018-05-02T14:23:51.806Z,8.43
2018-05-02T14:26:20.937Z,8.40
2018-05-02T14:28:50.048Z,9.57
2018-05-02T14:31:19.219Z,8.30
2018-05-02T14:33:48.348Z,8.23
2018-05-02T14:36:17.472Z,8.00
2018-05-02T14:38:47.344Z,8.80
2018-05-02T14:41:16.477Z,8.40
2018-05-02T14:43:45.587Z,9.30
2018-05-02T14:46:14.733Z,8.20
2018-05-02T14:48:44.033Z,8.60
2018-05-02T14:51:13.133Z,8.67
2018-05-02T14:53:42.278Z,8.00
2018-05-02T14:56:11.435Z,8.60
2018-05-02T14:58:40.564Z,8.97
2018-05-02T15:01:09.716Z,8.73
2018-05-02T15:03:38.870Z,8.40
2018-05-02T15:06:08.038Z,9.00
2018-05-02T15:08:37.180Z,8.80
2018-05-02T15:11:06.295Z,8.20
2018-05-02T15:13:35.456Z,9.00
2018-05-02T15:16:04.621Z,9.70
2018-05-02T15:18:33.749Z,9.67
2018-05-02T15:21:02.872Z,8.80
2018-05-02T15:23:32.024Z,9.10
2018-05-02T15:26:01.276Z,8.47
2018-05-02T15:28:30.427Z,8.50
2018-05-02T15:30:59.608Z,8.80
2018-05-02T15:33:28.739Z,8.97
2018-05-02T15:35:57.855Z,9.17
2018-05-02T15:38:27.201Z,8.73
2018-05-02T15:40:56.339Z,8.57
2018-05-02T15:43:25.445Z,10.50
2018-05-02T15:45:54.620Z,8.90
2018-05-02T15:48:23.741Z,10.50
2018-05-02T15:50:52.868Z,9.57
2018-05-02T15:53:22.031Z,9.30
2018-05-02T15:55:51.146Z,9.47
2018-05-02T15:58:20.301Z,8.67
2018-05-02T16:00:49.474Z,9.00
2018-05-02T16:03:18.997Z,9.63
2018-05-02T16:05:48.148Z,8.70
2018-05-02T16:08:17.304Z,8.93
2018-05-02T16:10:46.428Z,8.80
2018-05-02T16:13:15.573Z,8.93
2018-05-02T16:15:44.716Z,9.63
2018-05-02T16:18:13.856Z,9.60
2018-05-02T16:20:42.992Z,9.60
2018-05-02T16:23:12.143Z,10.47
2018-05-02T16:25:41.279Z,9.40
2018-05-02T16:28:10.424Z,8.80
2018-05-02T16:30:39.548Z,9.83
2018-05-02T16:33:08.712Z,9.90
2018-05-02T16:35:37.868Z,9.27
2018-05-02T16:38:06.978Z,9.43
2018-05-02T16:40:36.233Z,10.17
2018-05-02T16:43:05.382Z,9.50
2018-05-02T16:45:34.520Z,10.67
2018-05-02T16:48:03.688Z,10.03
2018-05-02T16:50:32.798Z,9.87
2018-05-02T16:53:01.941Z,10.30
2018-05-02T16:55:31.110Z,11.80
2018-05-02T16:58:00.243Z,10.07
2018-05-02T17:00:29.364Z,10.33
2018-05-02T17:02:58.524Z,10.00
2018-05-02T17:05:27.812Z,11.53
2018-05-02T17:07:56.933Z,10.47
2018-05-02T17:10:26.086Z,11.03
2018-05-02T17:12:55.213Z,9.97
2018-05-02T17:15:24.511Z,9.50
2018-05-02T17:17:53.683Z,9.97
2018-05-02T17:20:22.835Z,10.10
2018-05-02T17:22:51.947Z,9.97
2018-05-02T17:25:21.112Z,9.90
2018-05-02T17:27:50.239Z,9.73
2018-05-02T17:30:19.356Z,10.20
2018-05-02T17:32:48.539Z,10.70
2018-05-02T17:35:17.682Z,10.53
2018-05-02T17:37:46.824Z,10.37
2018-05-02T17:40:15.972Z,10.83
2018-05-02T17:42:45.120Z,10.90
2018-05-02T17:45:14.265Z,10.17
2018-05-02T17:47:43.405Z,9.50
2018-05-02T17:50:12.560Z,9.90
2018-05-02T17:52:48.615Z,9.53
2018-05-02T17:55:17.757Z,9.63
2018-05-02T17:57:46.884Z,9.73
2018-05-02T18:00:16.073Z,9.40
2018-05-02T18:02:45.222Z,9.83
2018-05-02T18:05:14.349Z,9.60
2018-05-02T18:07:43.917Z,10.47
2018-05-02T18:10:13.052Z,9.33
2018-05-02T18:12:42.174Z,9.53
2018-05-02T18:15:11.327Z,9.90
2018-05-02T18:17:40.476Z,10.30
2018-05-02T18:20:09.628Z,8.83
2018-05-02T18:22:38.863Z,9.53
2018-05-02T18:25:07.964Z,9.90
2018-05-02T18:27:37.107Z,10.23
2018-05-02T18:30:06.360Z,10.33
2018-05-02T18:32:35.485Z,9.97
2018-05-02T18:35:04.599Z,9.80
2018-05-02T18:37:33.755Z,9.83
2018-05-02T18:40:02.888Z,10.40
2018-05-02T18:42:32.030Z,10.33
2018-05-02T18:45:01.222Z,9.30
2018-05-02T18:47:30.328Z,9.83
2018-05-02T18:49:59.475Z,10.63
2018-05-02T18:52:28.652Z,10.00
2018-05-02T18:54:57.773Z,9.67
2018-05-02T18:57:26.905Z,10.20
2018-05-02T18:59:56.067Z,10.10
2018-05-02T19:02:25.203Z,10.13
2018-05-02T19:04:54.348Z,9.80
2018-05-02T19:07:23.505Z,9.60
2018-05-02T19:09:52.743Z,9.53
2018-05-02T19:12:21.880Z,9.70
2018-05-02T19:14:51.045Z,10.03
2018-05-02T19:17:20.180Z,9.60
2018-05-02T19:19:55.014Z,9.10
2018-05-02T19:22:24.155Z,9.47
2018-05-02T19:24:58.997Z,9.93
2018-05-02T19:27:28.111Z,10.10
2018-05-02T19:29:58.056Z,10.73
2018-05-02T19:32:32.904Z,9.87
2018-05-02T19:35:02.041Z,10.10
2018-05-02T19:37:31.157Z,9.77
2018-05-02T19:40:06.029Z,10.10
2018-05-02T19:42:41.013Z,11.17
2018-05-02T19:45:10.152Z,10.87
2018-05-02T19:50:06.765Z,11.87
2018-05-02T19:52:41.524Z,12.73
2018-05-02T19:55:10.668Z,11.60
2018-05-02T19:57:39.905Z,12.57
2018-05-02T20:00:14.781Z,11.97
2018-05-02T20:02:49.644Z,10.53
2018-05-02T20:05:18.836Z,11.43
2018-05-02T20:07:47.988Z,11.00
2018-05-02T20:10:23.948Z,10.23
2018-05-02T20:12:58.713Z,10.80
2018-05-02T20:15:27.824Z,10.47
2018-05-02T20:17:56.987Z,10.37
2018-05-02T20:20:26.119Z,9.90
2018-05-02T20:22:55.230Z,9.90
2018-05-02T20:25:24.369Z,11.13
2018-05-02T20:27:53.530Z,11.27
2018-05-02T20:30:22.666Z,11.10
2018-05-02T20:32:51.803Z,11.00
2018-05-02T20:35:20.952Z,11.13
2018-05-02T20:37:50.091Z,12.97
2018-05-02T20:40:19.275Z,15.53
2018-05-02T20:42:48.452Z,16.70
2018-05-02T20:45:17.587Z,18.47
2018-05-02T20:47:46.799Z,17.13
2018-05-02T20:50:15.919Z,12.90
2018-05-02T20:52:45.037Z,12.60
2018-05-02T20:55:14.248Z,11.20
2018-05-02T20:57:43.367Z,11.83
2018-05-02T21:00:12.540Z,11.23
2018-05-02T21:02:41.675Z,11.30
2018-05-02T21:05:10.824Z,11.37
2018-05-02T21:07:39.977Z,10.90
2018-05-02T21:10:09.105Z,10.97
2018-05-02T21:12:38.263Z,12.13
2018-05-02T21:15:07.458Z,12.20
2018-05-02T21:17:36.615Z,11.67
2018-05-02T21:20:05.752Z,11.60
2018-05-02T21:22:34.888Z,11.50
2018-05-02T21:25:04.064Z,11.63
2018-05-02T21:27:33.192Z,12.57
2018-05-02T21:30:02.321Z,11.37
2018-05-02T21:32:31.491Z,11.83
2018-05-02T21:35:00.632Z,11.67
2018-05-02T21:37:29.756Z,13.20
2018-05-02T21:39:58.933Z,13.50
2018-05-02T21:42:28.048Z,13.20
2018-05-02T21:44:57.192Z,12.10
2018-05-02T21:47:26.308Z,13.00
2018-05-02T21:49:55.440Z,12.00
2018-05-02T21:52:24.588Z,12.50
2018-05-02T21:54:53.748Z,12.43
2018-05-02T21:57:22.924Z,11.90
2018-05-02T21:59:52.097Z,11.93
2018-05-02T22:02:21.226Z,12.80
2018-05-02T22:04:50.388Z,12.30
2018-05-02T22:07:19.511Z,11.97
2018-05-02T22:09:48.656Z,12.23
2018-05-02T22:12:17.783Z,12.30
2018-05-02T22:14:46.906Z,12.77
2018-05-02T22:17:16.054Z,12.63
2018-05-02T22:19:45.201Z,12.10
2018-05-02T22:22:14.572Z,12.00
2018-05-02T22:24:43.708Z,12.60
2018-05-02T22:27:12.865Z,12.00
2018-05-02T22:29:42.013Z,12.13
2018-05-02T22:32:11.128Z,12.13
2018-05-02T22:34:40.298Z,12.40
2018-05-02T22:37:09.411Z,11.80
2018-05-02T22:39:38.918Z,12.50
2018-05-02T22:42:08.093Z,11.03
2018-05-02T22:44:37.221Z,13.40
2018-05-02T22:47:06.371Z,11.07
2018-05-02T22:49:35.535Z,12.43
2018-05-02T22:52:04.704Z,11.30
2018-05-02T22:54:33.822Z,12.37
2018-05-02T22:57:03.009Z,13.00
2018-05-02T22:59:32.126Z,12.33
2018-05-02T23:02:01.290Z,13.17
2018-05-02T23:04:30.497Z,12.40
2018-05-02T23:06:59.637Z,12.70
2018-05-02T23:09:28.751Z,13.17
2018-05-02T23:11:57.928Z,12.70
2018-05-02T23:14:27.080Z,13.00
2018-05-02T23:16:56.220Z,12.67
2018-05-02T23:19:25.366Z,12.17
2018-05-02T23:21:54.504Z,11.97
2018-05-02T23:24:23.648Z,12.97
2018-05-02T23:26:52.848Z,12.77
2018-05-02T23:29:21.989Z,12.87
2018-05-02T23:31:51.109Z,14.17
2018-05-02T23:34:20.256Z,13.20
2018-05-02T23:36:49.362Z,13.37
2018-05-02T23:39:18.482Z,12.37
2018-05-02T23:41:47.643Z,13.40
2018-05-02T23:44:16.808Z,12.90
2018-05-02T23:46:45.948Z,12.40
2018-05-02T23:49:15.071Z,12.40
2018-05-02T23:51:44.209Z,12.70
2018-05-02T23:54:13.535Z,12.67
2018-05-02T23:56:42.671Z,12.07
2018-05-02T23:59:11.812Z,12.80
